Terminal Aerodrome Forecast
Issued by NWS

Home | Current Version | Previous Version | Text Only | Print | Product List | Glossary On
Versions: 1 2 3 4 5 6 7 8 9 10 11 12 13 14 15
000
FTUS45 KTFX 300800 AAA
TAFHVR
TAF AMD
KHVR 300800Z 3008/0106 09010KT 2SM FU BKN120
     FM301000 24008KT P6SM SKC
     FM301700 28020G30KT P6SM SCT070
     FM010000 27013KT P6SM SKC=

USA.gov is the U.S. government's official web portal to all federal, state and local government web resources and services.